createdAt,value
2023-01-30T00:00:08.873Z,8.27
2023-01-30T00:02:52.939Z,6.97
2023-01-30T00:05:36.830Z,6.07
2023-01-30T00:08:20.894Z,7.33
2023-01-30T00:11:06.318Z,6.87
2023-01-30T00:13:52.544Z,7.60
2023-01-30T00:16:36.665Z,6.80
2023-01-30T00:19:20.547Z,6.83
2023-01-30T00:22:04.320Z,6.30
2023-01-30T00:24:48.278Z,6.23
2023-01-30T00:27:32.292Z,6.10
2023-01-30T00:30:17.961Z,5.97
2023-01-30T00:33:02.275Z,6.00
2023-01-30T00:35:47.024Z,6.37
2023-01-30T00:38:30.899Z,6.33
2023-01-30T00:41:15.443Z,6.63
2023-01-30T00:44:16.600Z,6.13
2023-01-30T00:47:09.000Z,5.70
2023-01-30T00:49:52.886Z,5.80
2023-01-30T00:52:36.733Z,5.30
2023-01-30T00:55:20.507Z,6.23
2023-01-30T00:58:04.302Z,5.50
2023-01-30T01:00:48.508Z,5.57
2023-01-30T01:03:33.720Z,5.87
2023-01-30T01:06:17.709Z,6.27
2023-01-30T01:09:02.658Z,5.30
2023-01-30T01:11:46.785Z,5.60
2023-01-30T01:14:30.944Z,5.30
2023-01-30T01:17:16.327Z,5.57
2023-01-30T01:20:01.536Z,5.70
2023-01-30T01:22:49.732Z,5.60
2023-01-30T01:25:33.599Z,5.73
2023-01-30T01:28:21.702Z,5.40
2023-01-30T01:31:10.652Z,5.33
2023-01-30T01:33:54.516Z,6.13
2023-01-30T01:36:55.589Z,5.67
2023-01-30T01:39:57.204Z,5.20
2023-01-30T01:42:41.363Z,5.67
2023-01-30T01:45:26.075Z,5.20
2023-01-30T01:48:15.867Z,5.97
2023-01-30T01:51:06.770Z,6.27
2023-01-30T01:53:57.614Z,6.07
2023-01-30T01:56:45.992Z,6.33
2023-01-30T01:59:36.185Z,5.67
2023-01-30T02:02:21.714Z,6.97
2023-01-30T02:05:11.216Z,5.63
2023-01-30T02:08:01.882Z,5.70
2023-01-30T02:10:54.480Z,6.10
2023-01-30T02:13:38.290Z,6.17
2023-01-30T02:16:22.205Z,5.43
2023-01-30T02:19:25.332Z,5.47
2023-01-30T02:22:22.782Z,5.50
2023-01-30T02:25:43.499Z,6.40
2023-01-30T02:28:53.694Z,6.33
2023-01-30T02:31:46.652Z,12.30
2023-01-30T02:34:43.960Z,6.50
2023-01-30T02:37:41.974Z,8.13
2023-01-30T02:40:40.773Z,7.07
2023-01-30T02:43:32.453Z,6.93
2023-01-30T02:46:22.388Z,6.47
2023-01-30T02:49:11.838Z,6.97
2023-01-30T02:51:59.284Z,7.43
2023-01-30T02:54:43.386Z,6.70
2023-01-30T02:57:28.018Z,6.97
2023-01-30T03:00:21.193Z,6.40
2023-01-30T03:03:33.060Z,6.37
2023-01-30T03:06:41.139Z,6.47
2023-01-30T03:09:36.877Z,7.17
2023-01-30T03:12:33.421Z,6.83
2023-01-30T03:15:23.618Z,7.03
2023-01-30T03:18:08.350Z,6.57
2023-01-30T03:20:52.670Z,6.63
2023-01-30T03:23:37.932Z,6.47
2023-01-30T03:26:27.464Z,6.20
2023-01-30T03:29:11.332Z,6.67
2023-01-30T03:31:55.206Z,6.53
2023-01-30T03:34:39.110Z,7.27
2023-01-30T03:37:22.949Z,7.00
2023-01-30T03:40:09.953Z,7.40
2023-01-30T03:42:54.811Z,6.87
2023-01-30T03:45:38.751Z,7.00
2023-01-30T03:48:22.868Z,6.53
2023-01-30T03:51:07.302Z,6.43
2023-01-30T03:53:51.170Z,6.70
2023-01-30T03:56:36.424Z,7.00
2023-01-30T03:59:20.451Z,7.37
2023-01-30T04:02:10.731Z,7.07
2023-01-30T04:04:54.761Z,6.40
2023-01-30T04:07:38.843Z,7.10
2023-01-30T04:10:22.779Z,6.90
2023-01-30T04:13:07.938Z,7.97
2023-01-30T04:15:51.822Z,7.27
2023-01-30T04:18:55.614Z,8.30
2023-01-30T04:21:42.035Z,8.40
2023-01-30T04:24:25.908Z,8.10
2023-01-30T04:27:10.510Z,7.87
2023-01-30T04:30:04.082Z,8.30
2023-01-30T04:32:48.576Z,7.80
2023-01-30T04:35:32.602Z,8.17
2023-01-30T04:38:16.547Z,8.47
2023-01-30T04:41:01.181Z,7.73
2023-01-30T04:43:47.358Z,8.60
2023-01-30T04:46:47.814Z,7.27
2023-01-30T04:49:32.505Z,7.33
2023-01-30T04:52:17.541Z,7.50
2023-01-30T04:55:01.458Z,7.17
2023-01-30T04:57:47.035Z,7.53
2023-01-30T05:00:31.033Z,7.63
2023-01-30T05:03:18.927Z,7.10
2023-01-30T05:06:02.824Z,7.63
2023-01-30T05:08:49.764Z,7.73
2023-01-30T05:11:33.729Z,7.80
2023-01-30T05:14:17.786Z,8.27
2023-01-30T05:17:01.766Z,8.83
2023-01-30T05:19:47.255Z,9.10
2023-01-30T05:22:31.226Z,8.37
2023-01-30T05:25:16.141Z,8.77
2023-01-30T05:28:00.424Z,8.73
2023-01-30T05:30:46.290Z,9.27
2023-01-30T05:33:31.119Z,8.83
2023-01-30T05:36:17.885Z,10.10
2023-01-30T05:39:01.696Z,14.73
2023-01-30T05:41:45.673Z,14.57
2023-01-30T05:44:29.591Z,14.63
2023-01-30T05:47:13.483Z,16.03
2023-01-30T05:49:57.401Z,14.67
2023-01-30T05:52:42.573Z,9.57
2023-01-30T05:55:26.538Z,8.53
2023-01-30T05:58:10.423Z,8.67
2023-01-30T06:00:54.374Z,9.50
2023-01-30T06:03:38.231Z,9.13
2023-01-30T06:06:22.730Z,13.03
2023-01-30T06:09:07.904Z,12.77
2023-01-30T06:11:53.256Z,11.50
2023-01-30T06:14:37.172Z,12.00
2023-01-30T06:17:20.973Z,8.37
2023-01-30T06:20:05.271Z,8.87
2023-01-30T06:22:49.451Z,9.30
2023-01-30T06:25:34.693Z,9.13
2023-01-30T06:28:20.061Z,8.53
2023-01-30T06:31:04.121Z,8.03
2023-01-30T06:33:49.441Z,8.90
2023-01-30T06:36:33.607Z,10.57
2023-01-30T06:39:17.431Z,12.90
2023-01-30T06:42:02.635Z,17.13
2023-01-30T06:44:46.565Z,13.67
2023-01-30T06:47:30.521Z,13.17
2023-01-30T06:50:16.058Z,11.60
2023-01-30T06:52:59.973Z,10.53
2023-01-30T06:55:43.864Z,11.50
2023-01-30T06:58:29.244Z,10.07
2023-01-30T07:01:13.161Z,10.40
2023-01-30T07:03:57.043Z,11.90
2023-01-30T07:06:40.888Z,9.87
2023-01-30T07:09:24.791Z,11.80
2023-01-30T07:12:08.657Z,12.70
2023-01-30T07:14:54.227Z,12.87
2023-01-30T07:17:38.065Z,14.07
2023-01-30T07:20:21.813Z,13.73
2023-01-30T07:23:05.869Z,12.90
2023-01-30T07:25:49.696Z,13.60
2023-01-30T07:28:33.480Z,14.43
2023-01-30T07:31:19.013Z,14.93
2023-01-30T07:34:03.024Z,17.43
2023-01-30T07:36:47.002Z,17.80
2023-01-30T07:39:30.974Z,17.07
2023-01-30T07:42:15.054Z,16.47
2023-01-30T07:44:58.989Z,17.63
2023-01-30T07:47:44.585Z,19.40
2023-01-30T07:50:28.845Z,20.60
2023-01-30T07:53:14.715Z,24.70
2023-01-30T07:55:59.563Z,20.23
2023-01-30T07:58:43.436Z,25.50
2023-01-30T08:01:27.593Z,19.27
2023-01-30T08:04:13.159Z,16.37
2023-01-30T08:06:57.565Z,16.27
2023-01-30T08:09:41.620Z,14.47
2023-01-30T08:12:25.639Z,14.33
2023-01-30T08:15:10.715Z,15.63
2023-01-30T08:17:56.529Z,15.90
2023-01-30T08:20:42.940Z,15.00
2023-01-30T08:23:27.011Z,18.73
2023-01-30T08:26:11.100Z,17.47
2023-01-30T08:28:56.090Z,16.50
2023-01-30T08:31:40.143Z,11.57
2023-01-30T08:34:24.179Z,12.47
2023-01-30T08:37:09.669Z,12.80
2023-01-30T08:39:53.666Z,12.47
2023-01-30T08:42:37.833Z,12.37
2023-01-30T08:45:21.872Z,12.57
2023-01-30T08:48:07.589Z,12.53
2023-01-30T08:50:53.347Z,11.73
2023-01-30T08:53:38.742Z,11.30
2023-01-30T08:56:22.771Z,10.90
2023-01-30T08:59:07.934Z,11.23
2023-01-30T09:01:52.004Z,11.70
2023-01-30T09:04:36.159Z,12.27
2023-01-30T09:07:20.327Z,12.73
2023-01-30T09:10:06.710Z,22.03
2023-01-30T09:12:51.095Z,15.40
2023-01-30T09:15:35.135Z,18.27
2023-01-30T09:18:19.036Z,19.37
2023-01-30T09:21:07.504Z,13.83
2023-01-30T09:23:51.513Z,18.83
2023-01-30T09:26:36.764Z,14.53
2023-01-30T09:29:20.669Z,10.70
2023-01-30T09:32:04.883Z,11.70
2023-01-30T09:34:48.627Z,14.07
2023-01-30T09:37:32.606Z,17.40
2023-01-30T09:40:18.856Z,14.47
2023-01-30T09:43:20.911Z,16.27
2023-01-30T09:46:22.261Z,13.73
2023-01-30T09:49:14.490Z,12.50
2023-01-30T09:52:10.566Z,13.97
2023-01-30T09:55:01.778Z,12.73
2023-01-30T09:57:49.148Z,13.33
2023-01-30T10:00:37.288Z,13.90
2023-01-30T10:03:24.737Z,14.80
2023-01-30T10:06:12.625Z,14.07
2023-01-30T10:09:04.535Z,15.10
2023-01-30T10:12:02.045Z,14.27
2023-01-30T10:15:14.858Z,13.63
2023-01-30T10:18:27.175Z,14.60
2023-01-30T10:21:21.882Z,13.57
2023-01-30T10:24:19.817Z,14.60
2023-01-30T10:27:05.049Z,12.60
2023-01-30T10:29:53.858Z,9.27
2023-01-30T10:32:45.433Z,9.80
2023-01-30T10:35:35.350Z,8.37
2023-01-30T10:38:23.039Z,7.93
2023-01-30T10:41:15.702Z,10.60
2023-01-30T10:44:04.386Z,7.37
2023-01-30T10:47:03.083Z,7.30
2023-01-30T10:49:53.083Z,7.73
2023-01-30T10:52:46.815Z,7.10
2023-01-30T10:55:38.680Z,8.07
2023-01-30T10:58:31.169Z,6.93
2023-01-30T11:01:21.079Z,6.80
2023-01-30T11:04:22.948Z,7.03
2023-01-30T11:07:07.462Z,6.90
2023-01-30T11:09:52.678Z,6.27
2023-01-30T11:12:36.528Z,6.23
2023-01-30T11:15:22.203Z,6.80
2023-01-30T11:18:50.903Z,6.37
2023-01-30T11:21:22.268Z,7.30
2023-01-30T11:24:17.177Z,16.20
2023-01-30T11:27:12.347Z,8.73
2023-01-30T11:30:06.034Z,6.60
2023-01-30T11:32:50.909Z,6.87
2023-01-30T11:35:45.542Z,7.50
2023-01-30T11:38:31.643Z,7.67
2023-01-30T11:41:21.377Z,7.30
2023-01-30T11:44:06.958Z,7.20
2023-01-30T11:46:50.889Z,7.70
2023-01-30T11:49:47.178Z,7.40
2023-01-30T11:52:38.110Z,9.60
2023-01-30T11:55:22.742Z,7.07
2023-01-30T11:58:10.829Z,8.27
2023-01-30T12:00:56.068Z,11.03
2023-01-30T12:03:48.660Z,9.40
2023-01-30T12:06:34.410Z,7.47
2023-01-30T12:09:33.604Z,8.00
2023-01-30T12:12:30.498Z,6.50
2023-01-30T12:15:24.563Z,7.70
2023-01-30T12:18:17.644Z,7.30
2023-01-30T12:21:03.255Z,8.33
2023-01-30T12:23:54.113Z,8.43
2023-01-30T12:26:45.692Z,8.20
2023-01-30T12:29:32.669Z,10.20
2023-01-30T12:32:20.199Z,7.43
2023-01-30T12:35:17.072Z,8.53
2023-01-30T12:38:09.234Z,8.50
2023-01-30T12:41:03.780Z,8.10
2023-01-30T12:44:00.879Z,7.33
2023-01-30T12:46:57.480Z,8.27
2023-01-30T12:50:00.053Z,8.90
2023-01-30T12:53:03.558Z,10.13
2023-01-30T12:55:57.312Z,9.93
2023-01-30T12:58:46.697Z,11.50
2023-01-30T13:01:40.538Z,10.50
2023-01-30T13:04:37.566Z,10.37
2023-01-30T13:07:33.897Z,10.47
2023-01-30T13:10:25.365Z,10.80
2023-01-30T13:13:19.180Z,10.90
2023-01-30T13:16:10.520Z,10.23
2023-01-30T13:18:59.007Z,9.90
2023-01-30T13:21:50.872Z,11.03
2023-01-30T13:24:48.222Z,11.23
2023-01-30T13:27:38.286Z,10.23
2023-01-30T13:30:25.626Z,10.10
2023-01-30T13:33:14.818Z,10.03
2023-01-30T13:36:07.859Z,10.03
2023-01-30T13:39:05.620Z,10.33
2023-01-30T13:41:57.489Z,7.73
2023-01-30T13:44:44.896Z,8.77
2023-01-30T13:47:42.147Z,8.43
2023-01-30T13:50:54.373Z,9.33
2023-01-30T13:53:43.867Z,9.90
2023-01-30T13:56:41.950Z,9.37
2023-01-30T13:59:42.179Z,9.80
2023-01-30T14:02:27.651Z,9.57
2023-01-30T14:05:11.548Z,9.47
2023-01-30T14:07:55.355Z,9.50
2023-01-30T14:10:39.178Z,10.30
2023-01-30T14:13:24.756Z,10.67
2023-01-30T14:16:09.093Z,12.53
2023-01-30T14:18:54.312Z,11.70
2023-01-30T14:21:38.593Z,10.43
2023-01-30T14:24:25.116Z,13.77
2023-01-30T14:27:27.537Z,12.63
2023-01-30T14:30:37.361Z,10.27
2023-01-30T14:33:51.383Z,9.87
2023-01-30T14:36:38.284Z,9.40
2023-01-30T14:39:55.681Z,10.23
2023-01-30T14:42:39.485Z,10.23
2023-01-30T14:45:46.267Z,10.53
2023-01-30T14:48:32.576Z,10.10
2023-01-30T14:51:23.946Z,12.50
2023-01-30T14:54:25.491Z,11.23
2023-01-30T14:57:22.198Z,11.13
2023-01-30T15:00:18.822Z,9.17
2023-01-30T15:03:08.492Z,7.50
2023-01-30T15:05:52.573Z,9.17
2023-01-30T15:08:41.911Z,10.20
2023-01-30T15:11:33.144Z,9.60
2023-01-30T15:14:23.735Z,12.20
2023-01-30T15:17:23.106Z,10.10
2023-01-30T15:20:33.688Z,9.97
2023-01-30T15:23:44.176Z,9.37
2023-01-30T15:26:42.636Z,9.53
2023-01-30T15:30:04.380Z,9.07
2023-01-30T15:32:50.040Z,10.60
2023-01-30T15:35:33.858Z,9.90
2023-01-30T15:38:26.943Z,9.70
2023-01-30T15:41:11.878Z,8.87
2023-01-30T15:44:20.553Z,9.83
2023-01-30T15:47:21.791Z,10.37
2023-01-30T15:50:08.584Z,11.43
2023-01-30T15:52:56.597Z,10.30
2023-01-30T15:55:40.509Z,11.30
2023-01-30T15:58:25.711Z,10.97
2023-01-30T16:01:15.456Z,10.73
2023-01-30T16:04:00.521Z,9.87
2023-01-30T16:06:44.352Z,11.60
2023-01-30T16:09:28.240Z,11.53
2023-01-30T16:12:25.734Z,12.30
2023-01-30T16:18:33.904Z,10.80
2023-01-30T16:21:20.975Z,10.27
2023-01-30T16:24:08.160Z,10.77
2023-01-30T16:26:56.283Z,11.13
2023-01-30T16:29:53.087Z,10.33
2023-01-30T16:32:38.944Z,10.33
2023-01-30T16:35:34.271Z,10.70
2023-01-30T16:38:38.745Z,10.60
2023-01-30T16:41:34.286Z,10.10
2023-01-30T16:44:20.456Z,10.57
2023-01-30T16:47:06.263Z,11.73
2023-01-30T16:49:52.848Z,9.93
2023-01-30T16:52:45.569Z,9.90
2023-01-30T16:55:29.557Z,10.80
2023-01-30T16:58:18.901Z,9.93
2023-01-30T17:01:05.262Z,11.03
2023-01-30T17:04:01.727Z,10.87
2023-01-30T17:06:50.096Z,11.50
2023-01-30T17:09:43.017Z,10.90
2023-01-30T17:12:48.471Z,10.23
2023-01-30T17:15:39.265Z,11.43
2023-01-30T17:18:23.092Z,11.30
2023-01-30T17:21:06.903Z,11.70
2023-01-30T17:23:54.514Z,11.93
2023-01-30T17:26:40.935Z,12.17
2023-01-30T17:29:41.597Z,11.43
2023-01-30T17:32:26.381Z,12.53
2023-01-30T17:35:10.617Z,13.97
2023-01-30T17:38:04.816Z,13.37
2023-01-30T17:40:50.095Z,12.73
2023-01-30T17:43:35.273Z,12.77
2023-01-30T17:46:20.038Z,12.93
2023-01-30T17:49:04.547Z,12.40
2023-01-30T17:51:49.121Z,12.60
2023-01-30T17:54:33.122Z,12.33
2023-01-30T17:57:17.082Z,13.13
2023-01-30T18:00:02.300Z,19.33
2023-01-30T18:02:54.256Z,30.90
2023-01-30T18:05:38.072Z,15.50
2023-01-30T18:08:24.959Z,13.77
2023-01-30T18:11:11.870Z,12.60
2023-01-30T18:13:55.745Z,12.27
2023-01-30T18:16:41.426Z,13.60
2023-01-30T18:19:25.260Z,12.40
2023-01-30T18:22:10.693Z,11.17
2023-01-30T18:24:54.525Z,11.70
2023-01-30T18:27:38.420Z,12.73
2023-01-30T18:30:25.104Z,11.90
2023-01-30T18:33:10.339Z,13.40
2023-01-30T18:35:56.239Z,13.10
2023-01-30T18:38:39.984Z,13.97
2023-01-30T18:41:25.266Z,13.37
2023-01-30T18:44:09.105Z,13.53
2023-01-30T18:46:52.875Z,15.90
2023-01-30T18:49:38.383Z,20.50
2023-01-30T18:52:23.809Z,20.03
2023-01-30T18:55:08.164Z,18.70
2023-01-30T18:57:52.143Z,16.13
2023-01-30T19:00:35.958Z,18.00
2023-01-30T19:03:19.830Z,19.40
2023-01-30T19:06:05.625Z,22.03
2023-01-30T19:08:49.469Z,23.37
2023-01-30T19:11:53.022Z,20.13
2023-01-30T19:14:43.002Z,21.63
2023-01-30T19:17:27.012Z,23.33
2023-01-30T19:20:14.799Z,19.50
2023-01-30T19:23:00.005Z,17.40
2023-01-30T19:25:44.043Z,24.03
2023-01-30T19:28:28.244Z,19.90
2023-01-30T19:31:17.284Z,28.50
2023-01-30T19:34:02.968Z,20.87
2023-01-30T19:36:48.223Z,23.23
2023-01-30T19:39:33.499Z,16.27
2023-01-30T19:42:19.673Z,17.80
2023-01-30T19:45:03.904Z,21.57
2023-01-30T19:47:48.011Z,26.63
2023-01-30T19:50:32.990Z,21.23
2023-01-30T19:53:16.805Z,20.73
2023-01-30T19:56:04.050Z,28.30
2023-01-30T19:58:50.733Z,24.00
2023-01-30T20:01:37.688Z,29.27
2023-01-30T20:04:21.585Z,28.87
2023-01-30T20:07:05.592Z,28.17
2023-01-30T20:09:49.518Z,20.33
2023-01-30T20:12:36.139Z,23.77
2023-01-30T20:15:20.175Z,23.50
2023-01-30T20:18:04.332Z,24.30
2023-01-30T20:20:48.403Z,25.20
2023-01-30T20:23:32.392Z,18.67
2023-01-30T20:26:18.802Z,19.77
2023-01-30T20:29:07.494Z,22.83
2023-01-30T20:31:54.006Z,25.30
2023-01-30T20:34:38.013Z,20.90
2023-01-30T20:37:22.056Z,33.13
2023-01-30T20:40:07.016Z,21.33
2023-01-30T20:42:51.035Z,21.07
2023-01-30T20:45:36.533Z,21.67
2023-01-30T20:48:20.453Z,24.47
2023-01-30T20:51:05.475Z,19.83
2023-01-30T20:53:54.466Z,21.60
2023-01-30T20:56:40.021Z,18.97
2023-01-30T20:59:27.335Z,18.13
2023-01-30T21:02:12.903Z,18.07
2023-01-30T21:04:56.995Z,17.53
2023-01-30T21:07:41.218Z,26.40
2023-01-30T21:10:25.244Z,34.10
2023-01-30T21:13:10.822Z,24.47
2023-01-30T21:16:02.819Z,43.30
2023-01-30T21:18:49.691Z,25.40
2023-01-30T21:21:37.008Z,59.57
2023-01-30T21:24:24.004Z,23.13
2023-01-30T21:27:08.059Z,20.13
2023-01-30T21:29:52.286Z,22.60
2023-01-30T21:32:36.734Z,26.37
2023-01-30T21:35:22.206Z,25.60
2023-01-30T21:38:23.887Z,26.40
2023-01-30T21:41:23.717Z,20.90
2023-01-30T21:44:10.166Z,21.77
2023-01-30T21:46:54.144Z,22.57
2023-01-30T21:49:38.166Z,22.13
2023-01-30T21:52:23.593Z,19.77
2023-01-30T21:55:08.171Z,20.93
2023-01-30T21:57:52.520Z,21.67
2023-01-30T22:00:36.948Z,24.70
2023-01-30T22:03:21.001Z,20.63
2023-01-30T22:06:07.771Z,20.73
2023-01-30T22:08:56.776Z,29.57
2023-01-30T22:11:40.720Z,20.33
2023-01-30T22:14:24.760Z,22.60
2023-01-30T22:17:08.808Z,31.03
2023-01-30T22:19:52.987Z,21.57
2023-01-30T22:22:37.301Z,21.90
2023-01-30T22:25:22.932Z,22.90
2023-01-30T22:28:09.345Z,24.73
2023-01-30T22:30:54.156Z,22.37
2023-01-30T22:33:38.620Z,23.40
2023-01-30T22:36:25.422Z,24.40
2023-01-30T22:39:09.515Z,22.53
2023-01-30T22:41:55.043Z,25.50
2023-01-30T22:44:39.893Z,23.83
2023-01-30T22:47:23.872Z,23.10
2023-01-30T22:50:08.449Z,20.40
2023-01-30T22:52:52.447Z,19.43
2023-01-30T22:55:39.260Z,19.90
2023-01-30T22:58:24.896Z,20.60
2023-01-30T23:01:10.584Z,21.53
2023-01-30T23:03:56.713Z,21.03
2023-01-30T23:06:40.736Z,21.33
2023-01-30T23:09:25.090Z,21.57
2023-01-30T23:12:26.513Z,20.17
2023-01-30T23:15:12.790Z,18.13
2023-01-30T23:18:14.324Z,19.57
2023-01-30T23:20:58.443Z,18.97
2023-01-30T23:23:42.910Z,24.70
2023-01-30T23:26:29.242Z,19.80
2023-01-30T23:29:15.052Z,18.37
2023-01-30T23:32:02.396Z,19.20
2023-01-30T23:34:46.216Z,20.27
2023-01-30T23:37:43.898Z,17.67
2023-01-30T23:40:27.773Z,18.83
2023-01-30T23:43:11.805Z,18.70
2023-01-30T23:45:56.009Z,18.33
2023-01-30T23:48:41.247Z,19.97
2023-01-30T23:51:27.376Z,18.80
2023-01-30T23:54:12.041Z,23.23
2023-01-30T23:56:56.135Z,20.23
2023-01-30T23:59:39.851Z,21.37
